createdAt,value
2022-10-22T00:02:20.065Z,7.76
2022-10-22T00:04:48.825Z,7.70
2022-10-22T00:07:17.488Z,7.65
2022-10-22T00:09:44.138Z,7.61
2022-10-22T00:12:14.858Z,7.57
2022-10-22T00:14:42.123Z,7.54
2022-10-22T00:17:11.454Z,7.52
2022-10-22T00:19:39.298Z,7.50
2022-10-22T00:22:07.874Z,7.48
2022-10-22T00:24:37.067Z,7.47
2022-10-22T00:27:04.621Z,7.45
2022-10-22T00:29:31.571Z,7.43
2022-10-22T00:31:58.209Z,7.40
2022-10-22T00:34:25.517Z,7.37
2022-10-22T00:36:53.013Z,7.35
2022-10-22T00:39:23.002Z,7.32
2022-10-22T00:41:51.975Z,7.31
2022-10-22T00:44:50.055Z,7.29
2022-10-22T00:47:18.264Z,7.27
2022-10-22T00:49:46.347Z,7.26
2022-10-22T00:52:13.861Z,7.24
2022-10-22T00:54:41.534Z,7.23
2022-10-22T00:57:08.919Z,7.22
2022-10-22T00:59:37.409Z,7.21
2022-10-22T01:02:04.011Z,7.21
2022-10-22T01:04:30.571Z,7.20
2022-10-22T01:06:59.492Z,7.19
2022-10-22T01:09:41.865Z,7.18
2022-10-22T01:12:34.583Z,7.17
2022-10-22T01:15:16.006Z,7.14
2022-10-22T01:18:02.305Z,7.12
2022-10-22T01:20:52.711Z,7.12
2022-10-22T01:23:41.484Z,7.10
2022-10-22T01:26:32.850Z,7.09
2022-10-22T01:29:10.876Z,7.07
2022-10-22T01:31:44.105Z,7.06
2022-10-22T01:34:15.965Z,7.03
2022-10-22T01:36:44.959Z,7.00
2022-10-22T01:39:14.757Z,7.00
2022-10-22T01:41:45.462Z,6.99
2022-10-22T01:44:29.062Z,6.98
2022-10-22T01:47:15.630Z,6.99
2022-10-22T01:50:05.311Z,7.02
2022-10-22T01:52:52.475Z,7.06
2022-10-22T01:55:30.301Z,7.10
2022-10-22T01:58:13.728Z,7.13
2022-10-22T02:00:48.087Z,7.19
2022-10-22T02:03:23.010Z,7.27
2022-10-22T02:05:56.989Z,7.35
2022-10-22T02:08:28.092Z,7.42
2022-10-22T02:10:56.918Z,7.48
2022-10-22T02:13:36.945Z,7.49
2022-10-22T02:16:07.811Z,7.48
2022-10-22T02:18:39.452Z,7.46
2022-10-22T02:23:33.739Z,7.39
2022-10-22T02:26:06.805Z,7.34
2022-10-22T02:28:42.903Z,7.30
2022-10-22T02:31:16.432Z,7.27
2022-10-22T02:33:48.251Z,7.23
2022-10-22T02:36:16.993Z,7.20
2022-10-22T02:38:46.950Z,7.15
2022-10-22T02:41:15.562Z,7.12
2022-10-22T02:43:43.753Z,7.09
2022-10-22T02:46:11.179Z,7.05
2022-10-22T02:48:37.658Z,7.01
2022-10-22T02:51:04.381Z,6.97
2022-10-22T02:53:33.572Z,6.94
2022-10-22T02:56:00.189Z,6.91
2022-10-22T02:58:27.079Z,6.89
2022-10-22T03:00:54.028Z,6.86
2022-10-22T03:03:20.715Z,6.83
2022-10-22T03:05:47.368Z,6.82
2022-10-22T03:08:13.911Z,6.79
2022-10-22T03:10:40.675Z,6.75
2022-10-22T03:13:07.219Z,6.74
2022-10-22T03:15:33.779Z,6.72
2022-10-22T03:18:00.595Z,6.69
2022-10-22T03:20:27.247Z,6.65
2022-10-22T03:22:55.634Z,6.61
2022-10-22T03:25:24.790Z,6.60
2022-10-22T03:27:55.442Z,6.58
2022-10-22T03:30:22.011Z,6.57
2022-10-22T03:32:48.589Z,6.54
2022-10-22T03:35:15.233Z,6.51
2022-10-22T03:37:42.301Z,6.45
2022-10-22T03:40:10.829Z,6.40
2022-10-22T03:42:37.685Z,6.34
2022-10-22T03:45:05.107Z,6.26
2022-10-22T03:47:31.667Z,6.12
2022-10-22T03:49:58.245Z,6.11
2022-10-22T03:52:25.141Z,6.11
2022-10-22T03:54:51.752Z,6.12
2022-10-22T03:57:18.649Z,6.14
2022-10-22T03:59:46.123Z,6.14
2022-10-22T04:02:14.084Z,6.16
2022-10-22T04:04:40.918Z,6.19
2022-10-22T04:07:08.193Z,6.23
2022-10-22T04:09:35.088Z,6.29
2022-10-22T04:12:05.322Z,6.34
2022-10-22T04:14:32.230Z,6.37
2022-10-22T04:16:58.864Z,6.42
2022-10-22T04:19:25.439Z,6.44
2022-10-22T04:21:51.982Z,6.45
2022-10-22T04:24:18.593Z,6.45
2022-10-22T04:26:45.181Z,6.46
2022-10-22T04:29:15.934Z,6.47
2022-10-22T04:31:43.114Z,6.47
2022-10-22T04:34:11.004Z,6.45
2022-10-22T04:36:37.623Z,6.43
2022-10-22T04:39:05.384Z,6.35
2022-10-22T04:41:35.494Z,6.34
2022-10-22T04:44:03.162Z,6.32
2022-10-22T04:46:32.426Z,6.31
2022-10-22T04:48:59.437Z,6.30
2022-10-22T04:51:27.314Z,6.27
2022-10-22T04:53:54.298Z,6.23
2022-10-22T04:56:24.276Z,6.20
2022-10-22T04:58:54.158Z,6.17
2022-10-22T05:01:24.665Z,6.16
2022-10-22T05:03:53.162Z,6.12
2022-10-22T05:06:21.092Z,6.10
2022-10-22T05:08:51.510Z,6.09
2022-10-22T05:11:21.821Z,6.08
2022-10-22T05:13:49.235Z,6.08
2022-10-22T05:16:16.185Z,6.08
2022-10-22T05:18:44.699Z,6.08
2022-10-22T05:21:14.561Z,6.07
2022-10-22T05:23:41.767Z,6.07
2022-10-22T05:26:10.539Z,6.08
2022-10-22T05:28:38.695Z,6.08
2022-10-22T05:31:08.086Z,6.07
2022-10-22T05:33:35.145Z,6.07
2022-10-22T05:36:04.337Z,6.09
2022-10-22T05:38:32.779Z,6.11
2022-10-22T05:41:01.734Z,6.17
2022-10-22T05:43:29.097Z,6.22
2022-10-22T05:45:56.167Z,6.29
2022-10-22T05:48:22.849Z,6.35
2022-10-22T05:50:50.305Z,6.42
2022-10-22T05:53:18.205Z,6.51
2022-10-22T05:55:45.501Z,6.59
2022-10-22T05:58:13.124Z,6.67
2022-10-22T06:00:40.272Z,6.72
2022-10-22T06:03:07.004Z,6.79
2022-10-22T06:05:35.846Z,6.82
2022-10-22T06:08:03.651Z,6.87
2022-10-22T06:10:31.061Z,6.90
2022-10-22T06:12:57.765Z,6.93
2022-10-22T06:15:24.316Z,6.97
2022-10-22T06:17:50.947Z,7.01
2022-10-22T06:20:17.868Z,7.03
2022-10-22T06:22:44.728Z,7.07
2022-10-22T06:25:11.902Z,7.08
2022-10-22T06:27:38.691Z,7.07
2022-10-22T06:30:06.090Z,7.11
2022-10-22T06:32:32.708Z,7.16
2022-10-22T06:34:59.456Z,7.21
2022-10-22T06:37:26.277Z,7.25
2022-10-22T06:39:53.022Z,7.30
2022-10-22T06:42:19.810Z,7.35
2022-10-22T06:44:47.733Z,7.39
2022-10-22T06:47:14.465Z,7.43
2022-10-22T06:49:41.998Z,7.46
2022-10-22T06:52:08.640Z,7.49
2022-10-22T06:54:35.270Z,7.55
2022-10-22T06:57:01.888Z,7.57
2022-10-22T06:59:28.680Z,7.61
2022-10-22T07:01:55.284Z,7.69
2022-10-22T07:04:22.030Z,7.77
2022-10-22T07:06:48.696Z,7.82
2022-10-22T07:09:15.520Z,7.88
2022-10-22T07:11:45.211Z,7.97
2022-10-22T07:14:13.288Z,8.04
2022-10-22T07:16:50.851Z,8.05
2022-10-22T07:19:17.534Z,8.10
2022-10-22T07:21:44.265Z,8.18
2022-10-22T07:24:11.197Z,8.26
2022-10-22T07:26:37.871Z,8.33
2022-10-22T07:29:05.832Z,8.35
2022-10-22T07:31:32.388Z,8.34
2022-10-22T07:33:59.016Z,8.40
2022-10-22T07:36:26.171Z,8.42
2022-10-22T07:38:55.966Z,8.46
2022-10-22T07:41:25.622Z,8.58
2022-10-22T07:43:52.305Z,8.73
2022-10-22T07:46:19.812Z,8.87
2022-10-22T07:48:46.699Z,9.00
2022-10-22T07:51:14.722Z,9.09
2022-10-22T07:53:41.400Z,9.13
2022-10-22T07:56:08.649Z,9.19
2022-10-22T07:58:35.557Z,9.30
2022-10-22T08:01:05.034Z,9.32
2022-10-22T08:03:32.471Z,9.29
2022-10-22T08:06:00.582Z,9.37
2022-10-22T08:08:30.719Z,9.54
2022-10-22T08:11:00.087Z,9.74
2022-10-22T08:13:29.738Z,9.94
2022-10-22T08:15:57.995Z,10.10
2022-10-22T08:18:25.856Z,10.25
2022-10-22T08:20:52.885Z,10.47
2022-10-22T08:23:24.409Z,10.68
2022-10-22T08:25:54.413Z,10.86
2022-10-22T08:28:22.113Z,10.96
2022-10-22T08:30:49.329Z,11.06
2022-10-22T08:33:15.993Z,11.17
2022-10-22T08:35:49.040Z,11.21
2022-10-22T08:38:15.549Z,11.32
2022-10-22T08:40:46.796Z,11.50
2022-10-22T08:43:52.295Z,11.62
2022-10-22T08:46:36.716Z,11.79
2022-10-22T08:51:39.891Z,12.06
2022-10-22T08:54:26.511Z,12.30
2022-10-22T08:57:22.318Z,12.56
2022-10-22T09:00:12.981Z,12.65
2022-10-22T09:03:02.522Z,12.82
2022-10-22T09:05:55.291Z,12.82
2022-10-22T09:08:22.629Z,12.95
2022-10-22T09:10:55.816Z,13.18
2022-10-22T09:13:23.525Z,13.34
2022-10-22T09:15:55.726Z,13.42
2022-10-22T09:18:53.551Z,13.48
2022-10-22T09:21:43.632Z,13.46
2022-10-22T09:24:32.177Z,13.30
2022-10-22T09:27:02.066Z,13.34
2022-10-22T09:29:37.434Z,13.46
2022-10-22T09:32:04.759Z,13.47
2022-10-22T09:34:32.127Z,13.46
2022-10-22T09:37:17.742Z,13.51
2022-10-22T09:39:47.336Z,13.70
2022-10-22T09:42:16.231Z,13.76
2022-10-22T09:44:46.170Z,13.73
2022-10-22T09:47:43.446Z,13.78
2022-10-22T09:50:40.482Z,13.96
2022-10-22T09:53:28.542Z,14.18
2022-10-22T09:55:58.472Z,14.52
2022-10-22T09:58:26.154Z,14.79
2022-10-22T10:00:56.637Z,15.08
2022-10-22T10:03:27.459Z,15.26
2022-10-22T10:06:01.554Z,15.59
2022-10-22T10:08:34.137Z,15.92
2022-10-22T10:11:34.454Z,16.06
2022-10-22T10:14:15.149Z,16.17
2022-10-22T10:16:55.709Z,16.16
2022-10-22T10:19:49.572Z,16.33
2022-10-22T10:22:47.420Z,16.46
2022-10-22T10:25:31.430Z,16.15
2022-10-22T10:28:12.305Z,16.50
2022-10-22T10:30:51.260Z,16.94
2022-10-22T10:33:37.605Z,17.16
2022-10-22T10:36:16.698Z,17.57
2022-10-22T10:39:00.782Z,17.82
2022-10-22T10:41:48.311Z,17.46
2022-10-22T10:44:36.590Z,17.61
2022-10-22T10:47:30.526Z,17.91
2022-10-22T10:50:19.037Z,17.92
2022-10-22T10:53:09.597Z,18.24
2022-10-22T10:55:47.754Z,18.66
2022-10-22T10:58:36.976Z,18.95
2022-10-22T11:01:19.238Z,19.16
2022-10-22T11:04:09.969Z,19.38
2022-10-22T11:06:38.716Z,19.76
2022-10-22T11:09:18.052Z,20.15
2022-10-22T11:11:51.543Z,20.59
2022-10-22T11:14:26.467Z,20.75
2022-10-22T11:17:03.850Z,20.97
2022-10-22T11:19:53.921Z,21.36
2022-10-22T11:22:31.498Z,21.63
2022-10-22T11:25:14.953Z,21.43
2022-10-22T11:27:54.052Z,21.26
2022-10-22T11:30:23.393Z,21.31
2022-10-22T11:32:55.603Z,21.31
2022-10-22T11:35:28.446Z,21.17
2022-10-22T11:37:57.332Z,21.17
2022-10-22T11:40:46.672Z,21.39
2022-10-22T11:43:32.009Z,21.50
2022-10-22T11:46:32.436Z,21.43
2022-10-22T11:49:21.464Z,21.82
2022-10-22T11:51:48.051Z,21.87
2022-10-22T11:54:41.953Z,22.17
2022-10-22T11:57:19.313Z,22.56
2022-10-22T11:59:52.078Z,23.06
2022-10-22T12:02:42.476Z,22.77
2022-10-22T12:05:31.465Z,22.21
2022-10-22T12:08:05.829Z,21.82
2022-10-22T12:10:48.023Z,21.76
2022-10-22T12:13:23.941Z,21.89
2022-10-22T12:15:55.853Z,22.01
2022-10-22T12:18:27.041Z,22.05
2022-10-22T12:20:54.652Z,21.96
2022-10-22T12:23:28.345Z,21.46
2022-10-22T12:25:54.965Z,21.09
2022-10-22T12:28:22.128Z,21.00
2022-10-22T12:30:48.766Z,20.79
2022-10-22T12:33:22.816Z,20.48
2022-10-22T12:35:53.530Z,20.28
2022-10-22T12:38:22.382Z,20.18
2022-10-22T12:40:53.472Z,20.05
2022-10-22T12:43:29.320Z,19.95
2022-10-22T12:46:00.249Z,19.59
2022-10-22T12:48:31.392Z,19.23
2022-10-22T12:51:00.549Z,19.06
2022-10-22T12:53:34.570Z,18.81
2022-10-22T12:56:05.885Z,18.65
2022-10-22T12:58:39.031Z,18.61
2022-10-22T13:01:06.145Z,18.59
2022-10-22T13:03:38.114Z,18.59
2022-10-22T13:06:14.284Z,18.57
2022-10-22T13:08:40.819Z,18.46
2022-10-22T13:11:10.533Z,18.40
2022-10-22T13:13:43.076Z,18.35
2022-10-22T13:16:20.419Z,18.24
2022-10-22T13:18:48.194Z,18.13
2022-10-22T13:21:33.237Z,18.05
2022-10-22T13:24:02.939Z,17.91
2022-10-22T13:26:33.733Z,17.78
2022-10-22T13:29:02.095Z,17.69
2022-10-22T13:31:32.833Z,17.56
2022-10-22T13:34:08.534Z,17.46
2022-10-22T13:36:37.548Z,17.39
2022-10-22T13:39:07.469Z,17.29
2022-10-22T13:44:04.462Z,17.16
2022-10-22T13:46:31.020Z,17.11
2022-10-22T13:48:59.282Z,17.05
2022-10-22T13:51:34.228Z,17.00
2022-10-22T13:54:02.900Z,16.95
2022-10-22T13:56:29.340Z,16.90
2022-10-22T13:58:55.819Z,16.86
2022-10-22T14:01:26.003Z,16.79
2022-10-22T14:03:57.186Z,16.72
2022-10-22T14:06:28.130Z,16.65
2022-10-22T14:08:59.250Z,16.60
2022-10-22T14:11:26.775Z,16.54
2022-10-22T14:13:54.119Z,16.51
2022-10-22T14:16:23.417Z,16.48
2022-10-22T14:18:50.632Z,16.41
2022-10-22T14:21:18.549Z,16.37
2022-10-22T14:23:47.089Z,16.34
2022-10-22T14:26:32.480Z,16.30
2022-10-22T14:29:15.951Z,16.26
2022-10-22T14:31:44.363Z,16.20
2022-10-22T14:34:14.631Z,16.15
2022-10-22T14:36:43.110Z,16.11
2022-10-22T14:39:09.665Z,16.05
2022-10-22T14:41:37.140Z,16.00
2022-10-22T14:44:11.913Z,15.94
2022-10-22T14:46:39.627Z,15.88
2022-10-22T14:49:06.063Z,15.84
2022-10-22T14:51:32.572Z,15.81
2022-10-22T14:53:59.107Z,15.78
2022-10-22T14:56:25.580Z,15.72
2022-10-22T14:58:53.135Z,15.66
2022-10-22T15:01:22.552Z,15.61
2022-10-22T15:03:49.150Z,15.56
2022-10-22T15:06:15.971Z,15.52
2022-10-22T15:08:44.556Z,15.46
2022-10-22T15:11:12.645Z,15.39
2022-10-22T15:13:40.721Z,15.34
2022-10-22T15:16:09.801Z,15.28
2022-10-22T15:18:36.582Z,15.23
2022-10-22T15:21:15.034Z,15.20
2022-10-22T15:23:42.993Z,15.17
2022-10-22T15:26:11.230Z,15.15
2022-10-22T15:28:39.174Z,15.12
2022-10-22T15:31:06.666Z,15.09
2022-10-22T15:33:33.378Z,15.07
2022-10-22T15:36:13.695Z,15.05
2022-10-22T15:38:41.213Z,15.00
2022-10-22T15:41:09.516Z,14.95
2022-10-22T15:43:36.757Z,14.90
2022-10-22T15:46:13.683Z,14.90
2022-10-22T15:48:41.129Z,14.88
2022-10-22T15:51:10.720Z,14.84
2022-10-22T15:53:38.219Z,14.75
2022-10-22T15:56:05.105Z,14.71
2022-10-22T15:58:34.631Z,14.68
2022-10-22T16:01:07.576Z,14.67
2022-10-22T16:03:34.933Z,14.65
2022-10-22T16:06:02.208Z,14.64
2022-10-22T16:08:29.419Z,14.62
2022-10-22T16:10:57.947Z,14.59
2022-10-22T16:13:25.954Z,14.56
2022-10-22T16:15:53.836Z,14.55
2022-10-22T16:18:21.036Z,14.54
2022-10-22T16:20:47.700Z,14.53
2022-10-22T16:23:18.095Z,14.52
2022-10-22T16:25:45.681Z,14.52
2022-10-22T16:28:12.438Z,14.51
2022-10-22T16:30:39.956Z,14.51
2022-10-22T16:33:07.615Z,14.49
2022-10-22T16:35:35.117Z,14.47
2022-10-22T16:38:01.963Z,14.42
2022-10-22T16:40:28.552Z,14.40
2022-10-22T16:42:55.205Z,14.40
2022-10-22T16:45:21.835Z,14.40
2022-10-22T16:47:49.031Z,14.41
2022-10-22T16:50:15.724Z,14.42
2022-10-22T16:52:50.330Z,14.42
2022-10-22T16:55:17.463Z,14.41
2022-10-22T16:57:51.244Z,14.38
2022-10-22T17:00:19.253Z,14.35
2022-10-22T17:02:52.124Z,14.29
2022-10-22T17:05:19.599Z,14.25
2022-10-22T17:07:46.442Z,14.22
2022-10-22T17:10:13.581Z,14.20
2022-10-22T17:12:40.672Z,14.19
2022-10-22T17:15:08.138Z,14.17
2022-10-22T17:17:35.078Z,14.16
2022-10-22T17:20:01.917Z,14.15
2022-10-22T17:22:28.625Z,14.15
2022-10-22T17:25:07.364Z,14.16
2022-10-22T17:27:34.002Z,14.16
2022-10-22T17:30:00.518Z,14.16
2022-10-22T17:32:28.625Z,14.16
2022-10-22T17:34:55.556Z,14.16
2022-10-22T17:37:22.720Z,14.15
2022-10-22T17:39:49.368Z,14.13
2022-10-22T17:42:16.413Z,14.14
2022-10-22T17:44:42.973Z,14.14
2022-10-22T17:47:09.701Z,14.14
2022-10-22T17:49:36.306Z,14.14
2022-10-22T17:52:03.139Z,14.13
2022-10-22T17:54:29.872Z,14.12
2022-10-22T17:56:56.400Z,14.11
2022-10-22T17:59:22.925Z,14.11
2022-10-22T18:01:49.673Z,14.10
2022-10-22T18:04:25.239Z,14.09
2022-10-22T18:07:08.076Z,14.08
2022-10-22T18:09:34.809Z,14.08
2022-10-22T18:12:01.581Z,14.07
2022-10-22T18:14:28.835Z,14.07
2022-10-22T18:16:55.468Z,14.03
2022-10-22T18:19:23.945Z,14.01
2022-10-22T18:21:50.813Z,14.01
2022-10-22T18:24:18.118Z,13.99
2022-10-22T18:26:46.949Z,13.99
2022-10-22T18:29:16.339Z,13.98
2022-10-22T18:31:43.622Z,13.95
2022-10-22T18:34:11.011Z,13.93
2022-10-22T18:36:37.980Z,13.93
2022-10-22T18:39:04.763Z,13.91
2022-10-22T18:41:32.761Z,13.88
2022-10-22T18:44:02.020Z,13.85
2022-10-22T18:46:32.107Z,13.83
2022-10-22T18:48:58.839Z,13.82
2022-10-22T18:51:30.047Z,13.80
2022-10-22T18:54:05.521Z,13.78
2022-10-22T18:56:44.201Z,13.77
2022-10-22T18:59:18.649Z,13.76
2022-10-22T19:01:45.253Z,13.76
2022-10-22T19:04:13.116Z,13.75
2022-10-22T19:06:42.996Z,13.75
2022-10-22T19:09:13.124Z,13.75
2022-10-22T19:11:39.595Z,13.74
2022-10-22T19:14:05.987Z,13.66
2022-10-22T19:16:34.368Z,13.65
2022-10-22T19:19:03.648Z,13.59
2022-10-22T19:21:31.568Z,13.56
2022-10-22T19:23:59.304Z,13.58
2022-10-22T19:26:28.393Z,13.57
2022-10-22T19:28:56.377Z,13.56
2022-10-22T19:31:26.727Z,13.45
2022-10-22T19:33:54.745Z,13.17
2022-10-22T19:36:24.566Z,13.15
2022-10-22T19:38:51.654Z,13.18
2022-10-22T19:41:25.641Z,13.20
2022-10-22T19:43:54.280Z,13.25
2022-10-22T19:46:21.941Z,13.30
2022-10-22T19:48:50.549Z,13.35
2022-10-22T19:51:22.280Z,13.42
2022-10-22T19:53:49.942Z,13.46
2022-10-22T19:56:19.445Z,13.48
2022-10-22T19:58:46.206Z,13.49
2022-10-22T20:01:16.494Z,13.50
2022-10-22T20:03:43.345Z,13.49
2022-10-22T20:06:12.165Z,13.50
2022-10-22T20:08:39.240Z,13.52
2022-10-22T20:11:10.119Z,13.53
2022-10-22T20:16:04.924Z,13.48
2022-10-22T20:18:33.540Z,13.46
2022-10-22T20:21:04.896Z,13.43
2022-10-22T20:23:32.532Z,13.38
2022-10-22T20:25:59.642Z,13.36
2022-10-22T20:28:26.340Z,13.32
2022-10-22T20:30:52.879Z,13.28
2022-10-22T20:33:19.500Z,13.26
2022-10-22T20:35:46.263Z,13.24
2022-10-22T20:38:14.505Z,13.23
2022-10-22T20:40:41.331Z,13.21
2022-10-22T20:43:13.428Z,13.20
2022-10-22T20:45:39.945Z,13.14
2022-10-22T20:48:06.737Z,13.09
2022-10-22T20:50:33.559Z,13.07
2022-10-22T20:53:00.122Z,13.02
2022-10-22T20:55:27.074Z,13.00
2022-10-22T20:57:54.588Z,12.97
2022-10-22T21:00:21.262Z,12.97
2022-10-22T21:02:47.789Z,12.97
2022-10-22T21:05:14.529Z,12.94
2022-10-22T21:07:41.521Z,12.92
2022-10-22T21:10:08.511Z,12.92
2022-10-22T21:12:35.410Z,12.89
2022-10-22T21:15:01.990Z,12.85
2022-10-22T21:17:28.623Z,12.81
2022-10-22T21:19:55.228Z,12.80
2022-10-22T21:22:21.807Z,12.82
2022-10-22T21:24:48.818Z,12.86
2022-10-22T21:27:15.582Z,12.90
2022-10-22T21:29:42.227Z,12.92
2022-10-22T21:32:08.920Z,12.95
2022-10-22T21:34:38.811Z,12.98
2022-10-22T21:37:05.902Z,13.01
2022-10-22T21:39:32.442Z,13.04
2022-10-22T21:41:59.083Z,13.06
2022-10-22T21:44:25.669Z,13.08
2022-10-22T21:46:52.734Z,13.09
2022-10-22T21:49:19.420Z,13.08
2022-10-22T21:51:46.191Z,13.03
2022-10-22T21:54:12.815Z,12.96
2022-10-22T21:56:40.949Z,12.89
2022-10-22T21:59:07.659Z,12.83
2022-10-22T22:01:34.822Z,12.78
2022-10-22T22:04:01.792Z,12.73
2022-10-22T22:06:33.202Z,12.68
2022-10-22T22:09:03.512Z,12.63
2022-10-22T22:11:30.498Z,12.58
2022-10-22T22:13:58.054Z,12.52
2022-10-22T22:16:28.848Z,12.45
2022-10-22T22:18:59.770Z,12.38
2022-10-22T22:21:26.978Z,12.35
2022-10-22T22:23:53.748Z,12.35
2022-10-22T22:26:26.694Z,12.35
2022-10-22T22:28:58.436Z,12.36
2022-10-22T22:31:29.111Z,12.37
2022-10-22T22:34:13.968Z,12.40
2022-10-22T22:36:44.769Z,12.45
2022-10-22T22:39:14.115Z,12.49
2022-10-22T22:41:42.096Z,12.54
2022-10-22T22:44:09.029Z,12.61
2022-10-22T22:46:35.813Z,12.67
2022-10-22T22:49:03.527Z,12.71
2022-10-22T22:51:31.058Z,12.78
2022-10-22T22:53:59.610Z,12.84
2022-10-22T22:56:28.830Z,12.88
2022-10-22T22:58:55.857Z,12.91
2022-10-22T23:01:27.815Z,12.90
2022-10-22T23:03:59.299Z,12.90
2022-10-22T23:06:28.641Z,12.87
2022-10-22T23:08:55.869Z,12.83
2022-10-22T23:11:24.438Z,12.78
2022-10-22T23:13:54.352Z,12.74
2022-10-22T23:16:23.230Z,12.68
2022-10-22T23:18:52.613Z,12.60
2022-10-22T23:21:22.311Z,12.53
2022-10-22T23:23:52.794Z,12.44
2022-10-22T23:26:24.565Z,12.35
2022-10-22T23:28:51.489Z,12.30
2022-10-22T23:31:21.121Z,12.26
2022-10-22T23:33:48.261Z,12.26
2022-10-22T23:36:15.175Z,12.26
2022-10-22T23:38:42.948Z,12.26
2022-10-22T23:41:12.784Z,12.30
2022-10-22T23:43:39.573Z,12.34
2022-10-22T23:46:09.880Z,12.37
2022-10-22T23:48:38.628Z,12.37
2022-10-22T23:51:09.639Z,12.37
2022-10-22T23:53:36.815Z,12.37
2022-10-22T23:56:06.734Z,12.39
2022-10-22T23:58:34.695Z,12.39
